sensor_id;sensor_type;location;lat;lon;timestamp;P1;durP1;ratioP1;P2;durP2;ratioP2
44270;SDS011;29963;44.594;11.368;2023-12-20T00:00:36;11.25;;;9.00;;
44270;SDS011;29963;44.594;11.368;2023-12-20T00:03:05;14.13;;;8.55;;
44270;SDS011;29963;44.594;11.368;2023-12-20T00:05:30;16.73;;;9.90;;
44270;SDS011;29963;44.594;11.368;2023-12-20T00:07:57;17.00;;;9.35;;
44270;SDS011;29963;44.594;11.368;2023-12-20T00:10:23;12.13;;;8.13;;
44270;SDS011;29963;44.594;11.368;2023-12-20T00:12:49;19.10;;;8.80;;
44270;SDS011;29963;44.594;11.368;2023-12-20T00:15:14;10.75;;;8.68;;
44270;SDS011;29963;44.594;11.368;2023-12-20T00:17:40;12.38;;;9.40;;
44270;SDS011;29963;44.594;11.368;2023-12-20T00:20:06;19.00;;;9.93;;
44270;SDS011;29963;44.594;11.368;2023-12-20T00:22:32;12.85;;;9.88;;
44270;SDS011;29963;44.594;11.368;2023-12-20T00:24:58;18.48;;;12.57;;
44270;SDS011;29963;44.594;11.368;2023-12-20T00:27:23;17.17;;;11.55;;
44270;SDS011;29963;44.594;11.368;2023-12-20T00:29:49;14.18;;;11.80;;
44270;SDS011;29963;44.594;11.368;2023-12-20T00:32:15;13.25;;;9.82;;
44270;SDS011;29963;44.594;11.368;2023-12-20T00:34:42;13.10;;;9.32;;
44270;SDS011;29963;44.594;11.368;2023-12-20T00:37:08;11.45;;;8.32;;
44270;SDS011;29963;44.594;11.368;2023-12-20T00:39:34;9.88;;;8.15;;
44270;SDS011;29963;44.594;11.368;2023-12-20T00:41:59;14.90;;;8.80;;
44270;SDS011;29963;44.594;11.368;2023-12-20T00:44:25;12.45;;;8.93;;
44270;SDS011;29963;44.594;11.368;2023-12-20T00:46:55;15.05;;;9.35;;
44270;SDS011;29963;44.594;11.368;2023-12-20T00:49:24;10.95;;;7.93;;
44270;SDS011;29963;44.594;11.368;2023-12-20T00:51:50;9.70;;;8.25;;
44270;SDS011;29963;44.594;11.368;2023-12-20T00:54:17;11.57;;;8.65;;
44270;SDS011;29963;44.594;11.368;2023-12-20T00:56:43;11.20;;;8.60;;
44270;SDS011;29963;44.594;11.368;2023-12-20T00:59:09;11.18;;;9.05;;
44270;SDS011;29963;44.594;11.368;2023-12-20T01:01:35;14.00;;;9.30;;
44270;SDS011;29963;44.594;11.368;2023-12-20T01:04:01;11.70;;;9.00;;
44270;SDS011;29963;44.594;11.368;2023-12-20T01:06:27;11.95;;;9.63;;
44270;SDS011;29963;44.594;11.368;2023-12-20T01:08:53;11.40;;;8.73;;
44270;SDS011;29963;44.594;11.368;2023-12-20T01:11:18;16.50;;;9.50;;
44270;SDS011;29963;44.594;11.368;2023-12-20T01:13:44;14.00;;;9.40;;
44270;SDS011;29963;44.594;11.368;2023-12-20T01:16:10;10.80;;;8.55;;
44270;SDS011;29963;44.594;11.368;2023-12-20T01:18:37;10.52;;;8.98;;
44270;SDS011;29963;44.594;11.368;2023-12-20T01:21:03;15.85;;;9.25;;
44270;SDS011;29963;44.594;11.368;2023-12-20T01:23:30;14.45;;;8.82;;
44270;SDS011;29963;44.594;11.368;2023-12-20T01:25:59;12.18;;;9.00;;
44270;SDS011;29963;44.594;11.368;2023-12-20T01:28:25;13.65;;;9.85;;
44270;SDS011;29963;44.594;11.368;2023-12-20T01:30:50;14.68;;;9.75;;
44270;SDS011;29963;44.594;11.368;2023-12-20T01:33:16;10.82;;;8.43;;
44270;SDS011;29963;44.594;11.368;2023-12-20T01:35:42;15.85;;;10.02;;
44270;SDS011;29963;44.594;11.368;2023-12-20T01:38:08;14.23;;;9.57;;
44270;SDS011;29963;44.594;11.368;2023-12-20T01:40:34;16.58;;;10.10;;
44270;SDS011;29963;44.594;11.368;2023-12-20T01:43:00;12.35;;;9.13;;
44270;SDS011;29963;44.594;11.368;2023-12-20T01:45:27;13.68;;;9.63;;
44270;SDS011;29963;44.594;11.368;2023-12-20T01:47:54;13.95;;;9.63;;
44270;SDS011;29963;44.594;11.368;2023-12-20T01:50:23;13.43;;;9.88;;
44270;SDS011;29963;44.594;11.368;2023-12-20T01:52:50;16.55;;;9.57;;
44270;SDS011;29963;44.594;11.368;2023-12-20T01:55:18;12.32;;;8.93;;
44270;SDS011;29963;44.594;11.368;2023-12-20T01:57:44;13.20;;;9.43;;
44270;SDS011;29963;44.594;11.368;2023-12-20T02:00:12;11.43;;;8.70;;
44270;SDS011;29963;44.594;11.368;2023-12-20T02:02:40;12.43;;;9.27;;
44270;SDS011;29963;44.594;11.368;2023-12-20T02:05:06;12.15;;;9.13;;
44270;SDS011;29963;44.594;11.368;2023-12-20T02:07:35;14.15;;;9.15;;
44270;SDS011;29963;44.594;11.368;2023-12-20T02:10:01;11.02;;;8.93;;
44270;SDS011;29963;44.594;11.368;2023-12-20T02:12:27;12.75;;;8.52;;
44270;SDS011;29963;44.594;11.368;2023-12-20T02:14:53;11.75;;;8.85;;
44270;SDS011;29963;44.594;11.368;2023-12-20T02:17:19;9.77;;;8.40;;
44270;SDS011;29963;44.594;11.368;2023-12-20T02:19:45;15.00;;;9.55;;
44270;SDS011;29963;44.594;11.368;2023-12-20T02:22:11;11.70;;;8.75;;
44270;SDS011;29963;44.594;11.368;2023-12-20T02:24:37;12.40;;;8.38;;
44270;SDS011;29963;44.594;11.368;2023-12-20T02:27:05;15.65;;;9.73;;
44270;SDS011;29963;44.594;11.368;2023-12-20T02:29:35;13.80;;;8.48;;
44270;SDS011;29963;44.594;11.368;2023-12-20T02:32:01;20.85;;;9.82;;
44270;SDS011;29963;44.594;11.368;2023-12-20T02:34:28;14.40;;;9.73;;
44270;SDS011;29963;44.594;11.368;2023-12-20T02:36:53;13.57;;;9.52;;
44270;SDS011;29963;44.594;11.368;2023-12-20T02:39:19;12.50;;;9.88;;
44270;SDS011;29963;44.594;11.368;2023-12-20T02:41:46;16.25;;;9.88;;
44270;SDS011;29963;44.594;11.368;2023-12-20T02:44:12;15.40;;;10.23;;
44270;SDS011;29963;44.594;11.368;2023-12-20T02:46:37;15.15;;;9.95;;
44270;SDS011;29963;44.594;11.368;2023-12-20T02:49:03;15.20;;;10.15;;
44270;SDS011;29963;44.594;11.368;2023-12-20T02:51:29;9.30;;;8.05;;
44270;SDS011;29963;44.594;11.368;2023-12-20T02:53:54;13.57;;;9.48;;
44270;SDS011;29963;44.594;11.368;2023-12-20T02:56:23;15.07;;;10.07;;
44270;SDS011;29963;44.594;11.368;2023-12-20T02:58:49;12.98;;;9.20;;
44270;SDS011;29963;44.594;11.368;2023-12-20T03:01:14;12.13;;;9.23;;
44270;SDS011;29963;44.594;11.368;2023-12-20T03:03:40;12.77;;;9.10;;
44270;SDS011;29963;44.594;11.368;2023-12-20T03:06:06;16.63;;;8.95;;
44270;SDS011;29963;44.594;11.368;2023-12-20T03:08:34;13.60;;;9.57;;
44270;SDS011;29963;44.594;11.368;2023-12-20T03:11:00;11.20;;;8.20;;
44270;SDS011;29963;44.594;11.368;2023-12-20T03:13:25;11.20;;;8.80;;
44270;SDS011;29963;44.594;11.368;2023-12-20T03:15:51;12.32;;;8.68;;
44270;SDS011;29963;44.594;11.368;2023-12-20T03:18:17;10.90;;;8.77;;
44270;SDS011;29963;44.594;11.368;2023-12-20T03:20:43;11.55;;;8.43;;
44270;SDS011;29963;44.594;11.368;2023-12-20T03:23:09;13.25;;;8.50;;
44270;SDS011;29963;44.594;11.368;2023-12-20T03:25:34;13.52;;;8.82;;
44270;SDS011;29963;44.594;11.368;2023-12-20T03:28:00;15.60;;;9.13;;
44270;SDS011;29963;44.594;11.368;2023-12-20T03:30:26;11.38;;;9.68;;
44270;SDS011;29963;44.594;11.368;2023-12-20T03:32:51;15.77;;;10.20;;
44270;SDS011;29963;44.594;11.368;2023-12-20T03:35:17;13.95;;;9.70;;
44270;SDS011;29963;44.594;11.368;2023-12-20T03:37:43;12.32;;;8.82;;
44270;SDS011;29963;44.594;11.368;2023-12-20T03:40:09;11.55;;;9.35;;
44270;SDS011;29963;44.594;11.368;2023-12-20T03:42:35;12.75;;;8.90;;
44270;SDS011;29963;44.594;11.368;2023-12-20T03:45:00;12.95;;;9.38;;
44270;SDS011;29963;44.594;11.368;2023-12-20T03:47:26;12.18;;;9.02;;
44270;SDS011;29963;44.594;11.368;2023-12-20T03:49:52;13.07;;;9.50;;
44270;SDS011;29963;44.594;11.368;2023-12-20T03:52:18;12.88;;;8.77;;
44270;SDS011;29963;44.594;11.368;2023-12-20T03:54:47;13.27;;;9.45;;
44270;SDS011;29963;44.594;11.368;2023-12-20T03:57:12;14.50;;;8.45;;
44270;SDS011;29963;44.594;11.368;2023-12-20T03:59:38;11.82;;;9.05;;
44270;SDS011;29963;44.594;11.368;2023-12-20T04:02:04;13.18;;;9.18;;
44270;SDS011;29963;44.594;11.368;2023-12-20T04:04:33;12.07;;;9.88;;
44270;SDS011;29963;44.594;11.368;2023-12-20T04:06:58;17.60;;;9.27;;
44270;SDS011;29963;44.594;11.368;2023-12-20T04:09:24;14.48;;;9.02;;
44270;SDS011;29963;44.594;11.368;2023-12-20T04:11:50;15.60;;;9.45;;
44270;SDS011;29963;44.594;11.368;2023-12-20T04:14:16;14.32;;;9.25;;
44270;SDS011;29963;44.594;11.368;2023-12-20T04:16:41;11.85;;;8.82;;
44270;SDS011;29963;44.594;11.368;2023-12-20T04:19:07;11.95;;;8.48;;
44270;SDS011;29963;44.594;11.368;2023-12-20T04:21:33;10.63;;;9.05;;
44270;SDS011;29963;44.594;11.368;2023-12-20T04:23:59;10.50;;;7.72;;
44270;SDS011;29963;44.594;11.368;2023-12-20T04:26:24;10.75;;;8.30;;
44270;SDS011;29963;44.594;11.368;2023-12-20T04:28:50;13.30;;;8.88;;
44270;SDS011;29963;44.594;11.368;2023-12-20T04:31:16;11.65;;;8.38;;
44270;SDS011;29963;44.594;11.368;2023-12-20T04:33:42;11.20;;;8.63;;
44270;SDS011;29963;44.594;11.368;2023-12-20T04:36:07;10.75;;;7.22;;
44270;SDS011;29963;44.594;11.368;2023-12-20T04:38:34;10.98;;;7.80;;
44270;SDS011;29963;44.594;11.368;2023-12-20T04:41:00;11.23;;;8.82;;
44270;SDS011;29963;44.594;11.368;2023-12-20T04:43:25;9.27;;;7.15;;
44270;SDS011;29963;44.594;11.368;2023-12-20T04:45:51;11.70;;;9.43;;
44270;SDS011;29963;44.594;11.368;2023-12-20T04:48:17;11.15;;;8.13;;
44270;SDS011;29963;44.594;11.368;2023-12-20T04:50:42;10.68;;;8.60;;
44270;SDS011;29963;44.594;11.368;2023-12-20T04:53:11;13.45;;;8.38;;
44270;SDS011;29963;44.594;11.368;2023-12-20T04:55:36;10.55;;;8.43;;
44270;SDS011;29963;44.594;11.368;2023-12-20T04:58:02;13.65;;;8.40;;
44270;SDS011;29963;44.594;11.368;2023-12-20T05:00:28;10.43;;;9.30;;
44270;SDS011;29963;44.594;11.368;2023-12-20T05:02:55;15.02;;;8.95;;
44270;SDS011;29963;44.594;11.368;2023-12-20T05:05:20;10.70;;;8.38;;
44270;SDS011;29963;44.594;11.368;2023-12-20T05:07:46;11.20;;;8.50;;
44270;SDS011;29963;44.594;11.368;2023-12-20T05:10:12;11.13;;;7.93;;
44270;SDS011;29963;44.594;11.368;2023-12-20T05:12:38;11.65;;;8.13;;
44270;SDS011;29963;44.594;11.368;2023-12-20T05:15:05;9.60;;;7.55;;
44270;SDS011;29963;44.594;11.368;2023-12-20T05:17:31;11.90;;;7.70;;
44270;SDS011;29963;44.594;11.368;2023-12-20T05:19:57;10.77;;;7.68;;
44270;SDS011;29963;44.594;11.368;2023-12-20T05:22:23;8.30;;;7.30;;
44270;SDS011;29963;44.594;11.368;2023-12-20T05:24:49;9.32;;;8.32;;
44270;SDS011;29963;44.594;11.368;2023-12-20T05:27:14;9.98;;;7.75;;
44270;SDS011;29963;44.594;11.368;2023-12-20T05:29:40;10.18;;;7.57;;
44270;SDS011;29963;44.594;11.368;2023-12-20T05:32:06;9.93;;;7.65;;
44270;SDS011;29963;44.594;11.368;2023-12-20T05:34:32;12.05;;;8.35;;
44270;SDS011;29963;44.594;11.368;2023-12-20T05:36:58;9.23;;;7.47;;
44270;SDS011;29963;44.594;11.368;2023-12-20T05:39:23;11.95;;;8.45;;
44270;SDS011;29963;44.594;11.368;2023-12-20T05:41:49;10.27;;;8.25;;
44270;SDS011;29963;44.594;11.368;2023-12-20T05:44:15;8.90;;;7.85;;
44270;SDS011;29963;44.594;11.368;2023-12-20T05:46:40;11.60;;;8.60;;
44270;SDS011;29963;44.594;11.368;2023-12-20T05:49:06;11.88;;;9.10;;
44270;SDS011;29963;44.594;11.368;2023-12-20T05:51:32;9.88;;;8.38;;
44270;SDS011;29963;44.594;11.368;2023-12-20T05:53:58;11.68;;;9.15;;
44270;SDS011;29963;44.594;11.368;2023-12-20T05:56:24;11.23;;;8.23;;
44270;SDS011;29963;44.594;11.368;2023-12-20T05:58:50;11.23;;;7.88;;
44270;SDS011;29963;44.594;11.368;2023-12-20T06:01:15;10.50;;;8.95;;
44270;SDS011;29963;44.594;11.368;2023-12-20T06:03:44;11.55;;;7.80;;
44270;SDS011;29963;44.594;11.368;2023-12-20T06:06:11;11.05;;;8.10;;
44270;SDS011;29963;44.594;11.368;2023-12-20T06:08:38;9.27;;;7.43;;
44270;SDS011;29963;44.594;11.368;2023-12-20T06:11:04;9.93;;;7.88;;
44270;SDS011;29963;44.594;11.368;2023-12-20T06:13:30;12.32;;;7.75;;
44270;SDS011;29963;44.594;11.368;2023-12-20T06:15:56;13.27;;;9.43;;
44270;SDS011;29963;44.594;11.368;2023-12-20T06:18:22;15.23;;;11.25;;
44270;SDS011;29963;44.594;11.368;2023-12-20T06:20:48;15.32;;;10.10;;
44270;SDS011;29963;44.594;11.368;2023-12-20T06:23:14;14.77;;;10.48;;
44270;SDS011;29963;44.594;11.368;2023-12-20T06:25:39;15.23;;;9.45;;
44270;SDS011;29963;44.594;11.368;2023-12-20T06:28:05;11.45;;;9.18;;
44270;SDS011;29963;44.594;11.368;2023-12-20T06:30:31;15.38;;;9.45;;
44270;SDS011;29963;44.594;11.368;2023-12-20T06:32:58;14.50;;;10.88;;
44270;SDS011;29963;44.594;11.368;2023-12-20T06:35:24;13.77;;;9.63;;
44270;SDS011;29963;44.594;11.368;2023-12-20T06:37:49;14.10;;;8.77;;
44270;SDS011;29963;44.594;11.368;2023-12-20T06:40:15;15.73;;;12.63;;
44270;SDS011;29963;44.594;11.368;2023-12-20T06:42:41;14.90;;;10.65;;
44270;SDS011;29963;44.594;11.368;2023-12-20T06:45:07;22.15;;;14.50;;
44270;SDS011;29963;44.594;11.368;2023-12-20T06:47:33;11.85;;;10.55;;
44270;SDS011;29963;44.594;11.368;2023-12-20T06:49:59;15.13;;;9.48;;
44270;SDS011;29963;44.594;11.368;2023-12-20T06:52:25;13.90;;;10.15;;
44270;SDS011;29963;44.594;11.368;2023-12-20T06:54:51;14.23;;;10.75;;
44270;SDS011;29963;44.594;11.368;2023-12-20T06:57:17;17.35;;;11.30;;
44270;SDS011;29963;44.594;11.368;2023-12-20T06:59:44;14.90;;;9.93;;
44270;SDS011;29963;44.594;11.368;2023-12-20T07:02:10;14.15;;;10.23;;
44270;SDS011;29963;44.594;11.368;2023-12-20T07:04:39;12.25;;;9.65;;
44270;SDS011;29963;44.594;11.368;2023-12-20T07:07:05;14.55;;;10.88;;
44270;SDS011;29963;44.594;11.368;2023-12-20T07:09:32;12.95;;;10.18;;
44270;SDS011;29963;44.594;11.368;2023-12-20T07:11:58;16.60;;;12.27;;
44270;SDS011;29963;44.594;11.368;2023-12-20T07:14:24;13.02;;;11.10;;
44270;SDS011;29963;44.594;11.368;2023-12-20T07:16:52;12.45;;;10.07;;
44270;SDS011;29963;44.594;11.368;2023-12-20T07:19:18;14.88;;;10.25;;
44270;SDS011;29963;44.594;11.368;2023-12-20T07:21:44;12.18;;;10.23;;
44270;SDS011;29963;44.594;11.368;2023-12-20T07:24:10;15.68;;;10.68;;
44270;SDS011;29963;44.594;11.368;2023-12-20T07:26:36;15.13;;;10.88;;
44270;SDS011;29963;44.594;11.368;2023-12-20T07:29:03;15.40;;;10.10;;
44270;SDS011;29963;44.594;11.368;2023-12-20T07:31:29;15.77;;;9.77;;
44270;SDS011;29963;44.594;11.368;2023-12-20T07:33:55;11.80;;;9.18;;
44270;SDS011;29963;44.594;11.368;2023-12-20T07:36:21;14.07;;;10.68;;
44270;SDS011;29963;44.594;11.368;2023-12-20T07:38:47;15.77;;;8.80;;
44270;SDS011;29963;44.594;11.368;2023-12-20T07:41:13;13.88;;;9.13;;
44270;SDS011;29963;44.594;11.368;2023-12-20T07:43:40;11.05;;;9.73;;
44270;SDS011;29963;44.594;11.368;2023-12-20T07:46:07;11.77;;;9.45;;
44270;SDS011;29963;44.594;11.368;2023-12-20T07:48:36;11.48;;;8.80;;
44270;SDS011;29963;44.594;11.368;2023-12-20T07:51:02;11.55;;;9.38;;
44270;SDS011;29963;44.594;11.368;2023-12-20T07:53:29;10.77;;;8.90;;
44270;SDS011;29963;44.594;11.368;2023-12-20T07:55:55;13.20;;;9.60;;
44270;SDS011;29963;44.594;11.368;2023-12-20T07:58:20;10.75;;;8.35;;
44270;SDS011;29963;44.594;11.368;2023-12-20T08:00:47;13.45;;;9.48;;
44270;SDS011;29963;44.594;11.368;2023-12-20T08:03:13;13.07;;;9.50;;
44270;SDS011;29963;44.594;11.368;2023-12-20T08:05:38;13.57;;;9.55;;
44270;SDS011;29963;44.594;11.368;2023-12-20T08:08:07;15.02;;;10.38;;
44270;SDS011;29963;44.594;11.368;2023-12-20T08:10:33;13.60;;;9.57;;
44270;SDS011;29963;44.594;11.368;2023-12-20T08:12:58;12.68;;;9.27;;
44270;SDS011;29963;44.594;11.368;2023-12-20T08:15:24;13.50;;;8.25;;
44270;SDS011;29963;44.594;11.368;2023-12-20T08:17:50;13.32;;;9.98;;
44270;SDS011;29963;44.594;11.368;2023-12-20T08:20:16;16.45;;;9.77;;
44270;SDS011;29963;44.594;11.368;2023-12-20T08:22:42;12.20;;;8.93;;
44270;SDS011;29963;44.594;11.368;2023-12-20T08:25:08;23.50;;;13.95;;
44270;SDS011;29963;44.594;11.368;2023-12-20T08:27:34;38.38;;;28.05;;
44270;SDS011;29963;44.594;11.368;2023-12-20T08:30:09;33.17;;;26.65;;
44270;SDS011;29963;44.594;11.368;2023-12-20T08:32:38;30.75;;;27.02;;
44270;SDS011;29963;44.594;11.368;2023-12-20T08:35:03;28.55;;;24.23;;
44270;SDS011;29963;44.594;11.368;2023-12-20T08:37:29;24.40;;;19.33;;
44270;SDS011;29963;44.594;11.368;2023-12-20T08:39:56;21.77;;;14.50;;
44270;SDS011;29963;44.594;11.368;2023-12-20T08:42:22;16.77;;;14.48;;
44270;SDS011;29963;44.594;11.368;2023-12-20T08:44:49;20.67;;;14.57;;
44270;SDS011;29963;44.594;11.368;2023-12-20T08:47:15;18.48;;;14.65;;
44270;SDS011;29963;44.594;11.368;2023-12-20T08:49:42;17.02;;;14.65;;
44270;SDS011;29963;44.594;11.368;2023-12-20T08:52:08;18.13;;;14.50;;
44270;SDS011;29963;44.594;11.368;2023-12-20T08:54:34;18.73;;;15.77;;
44270;SDS011;29963;44.594;11.368;2023-12-20T08:57:00;17.90;;;13.10;;
44270;SDS011;29963;44.594;11.368;2023-12-20T08:59:25;20.42;;;14.05;;
44270;SDS011;29963;44.594;11.368;2023-12-20T09:01:51;16.77;;;14.43;;
44270;SDS011;29963;44.594;11.368;2023-12-20T09:04:19;21.02;;;15.90;;
44270;SDS011;29963;44.594;11.368;2023-12-20T09:06:45;20.42;;;15.95;;
44270;SDS011;29963;44.594;11.368;2023-12-20T09:09:11;21.05;;;16.70;;
44270;SDS011;29963;44.594;11.368;2023-12-20T09:11:38;23.08;;;17.40;;
44270;SDS011;29963;44.594;11.368;2023-12-20T09:14:04;20.10;;;16.92;;
44270;SDS011;29963;44.594;11.368;2023-12-20T09:16:30;18.25;;;15.57;;
44270;SDS011;29963;44.594;11.368;2023-12-20T09:18:56;22.40;;;17.02;;
44270;SDS011;29963;44.594;11.368;2023-12-20T09:21:25;22.42;;;17.20;;
44270;SDS011;29963;44.594;11.368;2023-12-20T09:23:51;22.23;;;17.25;;
44270;SDS011;29963;44.594;11.368;2023-12-20T09:26:17;22.27;;;17.02;;
44270;SDS011;29963;44.594;11.368;2023-12-20T09:28:42;23.90;;;19.50;;
44270;SDS011;29963;44.594;11.368;2023-12-20T09:31:08;25.55;;;18.45;;
44270;SDS011;29963;44.594;11.368;2023-12-20T09:33:34;25.63;;;19.98;;
44270;SDS011;29963;44.594;11.368;2023-12-20T09:36:00;29.60;;;20.85;;
44270;SDS011;29963;44.594;11.368;2023-12-20T09:38:26;25.38;;;19.10;;
44270;SDS011;29963;44.594;11.368;2023-12-20T09:40:51;24.38;;;21.35;;
44270;SDS011;29963;44.594;11.368;2023-12-20T09:43:19;28.92;;;21.45;;
44270;SDS011;29963;44.594;11.368;2023-12-20T09:45:47;26.25;;;21.58;;
44270;SDS011;29963;44.594;11.368;2023-12-20T09:48:13;28.13;;;22.27;;
44270;SDS011;29963;44.594;11.368;2023-12-20T09:50:41;29.38;;;22.48;;
44270;SDS011;29963;44.594;11.368;2023-12-20T09:53:08;31.50;;;25.33;;
44270;SDS011;29963;44.594;11.368;2023-12-20T09:55:37;32.28;;;23.80;;
44270;SDS011;29963;44.594;11.368;2023-12-20T09:58:04;28.67;;;24.00;;
44270;SDS011;29963;44.594;11.368;2023-12-20T10:00:31;39.97;;;26.95;;
44270;SDS011;29963;44.594;11.368;2023-12-20T10:02:59;36.30;;;25.27;;
44270;SDS011;29963;44.594;11.368;2023-12-20T10:05:28;32.17;;;25.20;;
44270;SDS011;29963;44.594;11.368;2023-12-20T10:07:55;29.60;;;25.42;;
44270;SDS011;29963;44.594;11.368;2023-12-20T10:10:21;32.17;;;23.73;;
44270;SDS011;29963;44.594;11.368;2023-12-20T10:13:06;33.17;;;25.40;;
44270;SDS011;29963;44.594;11.368;2023-12-20T10:15:34;37.95;;;27.20;;
44270;SDS011;29963;44.594;11.368;2023-12-20T10:18:03;35.88;;;26.13;;
44270;SDS011;29963;44.594;11.368;2023-12-20T10:20:30;34.20;;;26.48;;
44270;SDS011;29963;44.594;11.368;2023-12-20T10:22:56;38.50;;;25.17;;
44270;SDS011;29963;44.594;11.368;2023-12-20T10:25:23;38.47;;;25.75;;
44270;SDS011;29963;44.594;11.368;2023-12-20T10:27:50;36.40;;;26.35;;
44270;SDS011;29963;44.594;11.368;2023-12-20T10:30:32;33.80;;;25.40;;
44270;SDS011;29963;44.594;11.368;2023-12-20T10:32:58;33.90;;;25.85;;
44270;SDS011;29963;44.594;11.368;2023-12-20T10:35:24;37.03;;;25.50;;
44270;SDS011;29963;44.594;11.368;2023-12-20T10:37:51;33.42;;;23.98;;
44270;SDS011;29963;44.594;11.368;2023-12-20T10:40:23;30.98;;;23.92;;
44270;SDS011;29963;44.594;11.368;2023-12-20T10:42:52;33.85;;;25.13;;
44270;SDS011;29963;44.594;11.368;2023-12-20T10:45:19;30.33;;;23.13;;
44270;SDS011;29963;44.594;11.368;2023-12-20T10:47:46;37.78;;;24.52;;
44270;SDS011;29963;44.594;11.368;2023-12-20T10:50:12;32.92;;;27.73;;
44270;SDS011;29963;44.594;11.368;2023-12-20T10:52:38;41.15;;;30.15;;
44270;SDS011;29963;44.594;11.368;2023-12-20T10:55:05;41.03;;;33.75;;
44270;SDS011;29963;44.594;11.368;2023-12-20T10:57:31;42.60;;;35.83;;
44270;SDS011;29963;44.594;11.368;2023-12-20T10:59:59;39.88;;;34.03;;
44270;SDS011;29963;44.594;11.368;2023-12-20T11:02:30;46.05;;;41.30;;
44270;SDS011;29963;44.594;11.368;2023-12-20T11:05:13;31.52;;;28.17;;
44270;SDS011;29963;44.594;11.368;2023-12-20T11:07:58;29.48;;;26.33;;
44270;SDS011;29963;44.594;11.368;2023-12-20T11:10:30;38.38;;;27.02;;
44270;SDS011;29963;44.594;11.368;2023-12-20T11:15:41;29.38;;;24.75;;
44270;SDS011;29963;44.594;11.368;2023-12-20T11:18:11;32.28;;;23.17;;
44270;SDS011;29963;44.594;11.368;2023-12-20T11:20:37;27.77;;;23.05;;
44270;SDS011;29963;44.594;11.368;2023-12-20T11:23:04;28.55;;;21.67;;
44270;SDS011;29963;44.594;11.368;2023-12-20T11:25:35;33.25;;;24.88;;
44270;SDS011;29963;44.594;11.368;2023-12-20T11:28:20;36.05;;;25.98;;
44270;SDS011;29963;44.594;11.368;2023-12-20T11:30:47;32.22;;;24.92;;
44270;SDS011;29963;44.594;11.368;2023-12-20T11:33:16;36.38;;;25.45;;
44270;SDS011;29963;44.594;11.368;2023-12-20T11:35:46;31.60;;;23.90;;
44270;SDS011;29963;44.594;11.368;2023-12-20T11:38:13;32.30;;;26.13;;
44270;SDS011;29963;44.594;11.368;2023-12-20T11:40:40;31.10;;;24.50;;
44270;SDS011;29963;44.594;11.368;2023-12-20T11:43:08;38.13;;;26.10;;
44270;SDS011;29963;44.594;11.368;2023-12-20T11:45:33;33.60;;;25.77;;
44270;SDS011;29963;44.594;11.368;2023-12-20T11:48:00;32.90;;;25.15;;
44270;SDS011;29963;44.594;11.368;2023-12-20T11:50:27;32.40;;;23.42;;
44270;SDS011;29963;44.594;11.368;2023-12-20T11:52:54;38.08;;;25.17;;
44270;SDS011;29963;44.594;11.368;2023-12-20T11:55:21;27.00;;;20.85;;
44270;SDS011;29963;44.594;11.368;2023-12-20T11:57:50;29.33;;;24.17;;
44270;SDS011;29963;44.594;11.368;2023-12-20T12:00:17;25.40;;;22.63;;
44270;SDS011;29963;44.594;11.368;2023-12-20T12:02:43;28.42;;;23.60;;
44270;SDS011;29963;44.594;11.368;2023-12-20T12:05:19;25.55;;;21.10;;
44270;SDS011;29963;44.594;11.368;2023-12-20T12:07:45;24.95;;;22.30;;
44270;SDS011;29963;44.594;11.368;2023-12-20T12:10:11;25.00;;;21.48;;
44270;SDS011;29963;44.594;11.368;2023-12-20T12:12:36;26.85;;;20.88;;
44270;SDS011;29963;44.594;11.368;2023-12-20T12:15:02;29.98;;;21.02;;
44270;SDS011;29963;44.594;11.368;2023-12-20T12:17:29;25.83;;;21.50;;
44270;SDS011;29963;44.594;11.368;2023-12-20T12:20:04;30.52;;;21.55;;
44270;SDS011;29963;44.594;11.368;2023-12-20T12:22:31;25.27;;;21.05;;
44270;SDS011;29963;44.594;11.368;2023-12-20T12:24:58;28.58;;;22.70;;
44270;SDS011;29963;44.594;11.368;2023-12-20T12:27:34;27.13;;;20.55;;
44270;SDS011;29963;44.594;11.368;2023-12-20T12:30:02;29.02;;;21.70;;
44270;SDS011;29963;44.594;11.368;2023-12-20T12:32:29;26.85;;;21.60;;
44270;SDS011;29963;44.594;11.368;2023-12-20T12:34:58;30.63;;;22.42;;
44270;SDS011;29963;44.594;11.368;2023-12-20T12:37:24;29.10;;;21.83;;
44270;SDS011;29963;44.594;11.368;2023-12-20T12:39:49;26.55;;;21.33;;
44270;SDS011;29963;44.594;11.368;2023-12-20T12:42:18;30.80;;;22.95;;
44270;SDS011;29963;44.594;11.368;2023-12-20T12:44:44;32.03;;;23.20;;
44270;SDS011;29963;44.594;11.368;2023-12-20T12:47:09;28.02;;;22.95;;
44270;SDS011;29963;44.594;11.368;2023-12-20T12:49:35;28.50;;;22.38;;
44270;SDS011;29963;44.594;11.368;2023-12-20T12:52:01;30.20;;;22.40;;
44270;SDS011;29963;44.594;11.368;2023-12-20T12:54:28;30.05;;;23.25;;
44270;SDS011;29963;44.594;11.368;2023-12-20T12:56:53;26.55;;;21.48;;
44270;SDS011;29963;44.594;11.368;2023-12-20T12:59:19;26.88;;;20.65;;
44270;SDS011;29963;44.594;11.368;2023-12-20T13:01:45;28.23;;;23.08;;
44270;SDS011;29963;44.594;11.368;2023-12-20T13:04:14;28.80;;;23.65;;
44270;SDS011;29963;44.594;11.368;2023-12-20T13:06:39;29.98;;;22.92;;
44270;SDS011;29963;44.594;11.368;2023-12-20T13:09:10;27.25;;;22.63;;
44270;SDS011;29963;44.594;11.368;2023-12-20T13:11:35;29.42;;;24.13;;
44270;SDS011;29963;44.594;11.368;2023-12-20T13:14:01;27.65;;;23.05;;
44270;SDS011;29963;44.594;11.368;2023-12-20T13:16:28;27.38;;;23.20;;
44270;SDS011;29963;44.594;11.368;2023-12-20T13:18:59;28.63;;;23.98;;
44270;SDS011;29963;44.594;11.368;2023-12-20T13:21:25;31.77;;;26.48;;
44270;SDS011;29963;44.594;11.368;2023-12-20T13:23:50;30.02;;;24.45;;
44270;SDS011;29963;44.594;11.368;2023-12-20T13:26:20;28.50;;;24.33;;
44270;SDS011;29963;44.594;11.368;2023-12-20T13:28:45;31.38;;;24.95;;
44270;SDS011;29963;44.594;11.368;2023-12-20T13:31:11;32.08;;;26.63;;
44270;SDS011;29963;44.594;11.368;2023-12-20T13:33:37;31.63;;;25.67;;
44270;SDS011;29963;44.594;11.368;2023-12-20T13:36:03;33.75;;;27.55;;
44270;SDS011;29963;44.594;11.368;2023-12-20T13:38:29;31.98;;;28.00;;
44270;SDS011;29963;44.594;11.368;2023-12-20T13:40:55;35.08;;;26.90;;
44270;SDS011;29963;44.594;11.368;2023-12-20T13:43:23;35.20;;;28.52;;
44270;SDS011;29963;44.594;11.368;2023-12-20T13:45:49;34.88;;;31.10;;
44270;SDS011;29963;44.594;11.368;2023-12-20T13:48:15;36.30;;;32.00;;
44270;SDS011;29963;44.594;11.368;2023-12-20T13:50:41;35.90;;;31.98;;
44270;SDS011;29963;44.594;11.368;2023-12-20T13:53:07;38.58;;;33.28;;
44270;SDS011;29963;44.594;11.368;2023-12-20T13:55:32;38.78;;;33.83;;
44270;SDS011;29963;44.594;11.368;2023-12-20T13:57:58;38.75;;;34.28;;
44270;SDS011;29963;44.594;11.368;2023-12-20T14:00:24;40.30;;;35.65;;
44270;SDS011;29963;44.594;11.368;2023-12-20T14:02:50;46.83;;;35.25;;
44270;SDS011;29963;44.594;11.368;2023-12-20T14:05:18;41.50;;;36.10;;
44270;SDS011;29963;44.594;11.368;2023-12-20T14:07:44;44.75;;;36.03;;
44270;SDS011;29963;44.594;11.368;2023-12-20T14:10:13;47.05;;;36.67;;
44270;SDS011;29963;44.594;11.368;2023-12-20T14:12:39;42.13;;;37.53;;
44270;SDS011;29963;44.594;11.368;2023-12-20T14:15:05;49.42;;;38.95;;